createdAt,value
2022-12-20T00:01:30.599Z,81.95
2022-12-20T00:04:00.162Z,82.33
2022-12-20T00:06:27.191Z,82.96
2022-12-20T00:08:59.200Z,83.29
2022-12-20T00:11:26.607Z,83.37
2022-12-20T00:13:53.269Z,83.53
2022-12-20T00:16:22.291Z,83.97
2022-12-20T00:18:53.076Z,84.49
2022-12-20T00:21:20.307Z,84.20
2022-12-20T00:23:46.805Z,84.85
2022-12-20T00:26:16.482Z,84.76
2022-12-20T00:28:45.519Z,84.93
2022-12-20T00:31:14.657Z,84.88
2022-12-20T00:33:41.727Z,85.46
2022-12-20T00:36:08.496Z,85.54
2022-12-20T00:38:35.882Z,85.58
2022-12-20T00:41:03.854Z,86.16
2022-12-20T00:43:32.016Z,86.21
2022-12-20T00:45:59.109Z,86.17
2022-12-20T00:48:26.716Z,85.92
2022-12-20T00:50:53.214Z,85.67
2022-12-20T00:53:26.021Z,86.49
2022-12-20T00:55:52.964Z,86.26
2022-12-20T00:58:19.602Z,86.89
2022-12-20T01:00:52.054Z,86.73
2022-12-20T01:03:22.561Z,86.57
2022-12-20T01:05:56.463Z,87.21
2022-12-20T01:08:24.950Z,87.23
2022-12-20T01:11:06.346Z,87.96
2022-12-20T01:13:34.809Z,87.88
2022-12-20T01:16:16.543Z,88.23
2022-12-20T01:18:43.631Z,88.64
2022-12-20T01:21:12.587Z,87.89
2022-12-20T01:23:40.484Z,87.69
2022-12-20T01:26:09.722Z,87.93
2022-12-20T01:28:38.182Z,88.17
2022-12-20T01:31:09.804Z,88.44
2022-12-20T01:33:36.884Z,88.76
2022-12-20T01:36:07.166Z,88.92
2022-12-20T01:38:34.421Z,88.97
2022-12-20T01:41:01.967Z,88.72
2022-12-20T01:43:49.013Z,89.21
2022-12-20T01:46:17.327Z,89.00
2022-12-20T01:48:49.777Z,88.89
2022-12-20T01:51:17.780Z,88.68
2022-12-20T01:53:44.411Z,89.28
2022-12-20T01:56:11.351Z,89.31
2022-12-20T01:58:39.554Z,89.09
2022-12-20T02:01:06.544Z,89.06
2022-12-20T02:03:33.713Z,88.87
2022-12-20T02:06:15.867Z,88.99
2022-12-20T02:08:43.534Z,89.57
2022-12-20T02:11:29.379Z,89.23
2022-12-20T02:14:21.925Z,89.26
2022-12-20T02:17:07.100Z,89.15
2022-12-20T02:19:52.045Z,88.77
2022-12-20T02:22:56.088Z,89.12
2022-12-20T02:25:46.037Z,89.60
2022-12-20T02:28:18.270Z,88.92
2022-12-20T02:30:49.692Z,89.63
2022-12-20T02:33:17.347Z,89.26
2022-12-20T02:35:43.969Z,89.50
2022-12-20T02:38:30.900Z,88.81
2022-12-20T02:41:19.178Z,89.62
2022-12-20T02:44:09.349Z,89.42
2022-12-20T02:46:37.136Z,88.93
2022-12-20T02:49:11.586Z,88.99
2022-12-20T02:51:39.974Z,89.23
2022-12-20T02:54:06.605Z,89.18
2022-12-20T02:56:43.936Z,89.04
2022-12-20T02:59:16.977Z,89.59
2022-12-20T03:01:50.495Z,89.59
2022-12-20T03:04:19.077Z,89.59
2022-12-20T03:07:06.957Z,89.76
2022-12-20T03:09:36.802Z,89.72
2022-12-20T03:12:03.950Z,89.61
2022-12-20T03:14:30.642Z,89.31
2022-12-20T03:16:57.433Z,89.77
2022-12-20T03:19:24.510Z,89.65
2022-12-20T03:21:51.810Z,89.95
2022-12-20T03:24:18.693Z,90.02
2022-12-20T03:26:45.341Z,89.88
2022-12-20T03:29:11.909Z,89.99
2022-12-20T03:31:39.015Z,90.25
2022-12-20T03:34:06.596Z,89.73
2022-12-20T03:36:33.593Z,89.66
2022-12-20T03:39:00.390Z,89.39
2022-12-20T03:41:27.043Z,89.67
2022-12-20T03:43:53.529Z,89.42
2022-12-20T03:46:20.384Z,89.97
2022-12-20T03:48:46.928Z,90.04
2022-12-20T03:51:13.462Z,90.07
2022-12-20T03:53:39.994Z,89.75
2022-12-20T03:56:06.666Z,89.88
2022-12-20T03:58:33.207Z,89.90
2022-12-20T04:00:59.726Z,89.44
2022-12-20T04:03:26.361Z,89.43
2022-12-20T04:05:52.961Z,89.54
2022-12-20T04:08:19.475Z,89.94
2022-12-20T04:11:04.633Z,89.12
2022-12-20T04:13:31.133Z,89.26
2022-12-20T04:16:00.742Z,89.73
2022-12-20T04:18:27.805Z,89.48
2022-12-20T04:20:55.029Z,89.46
2022-12-20T04:23:21.803Z,89.65
2022-12-20T04:25:48.361Z,89.56
2022-12-20T04:28:14.841Z,89.04
2022-12-20T04:30:41.357Z,89.66
2022-12-20T04:33:07.953Z,89.70
2022-12-20T04:35:34.493Z,89.44
2022-12-20T04:38:01.192Z,88.94
2022-12-20T04:40:27.777Z,89.17
2022-12-20T04:42:54.293Z,89.20
2022-12-20T04:45:20.894Z,89.01
2022-12-20T04:47:47.419Z,89.05
2022-12-20T04:50:13.977Z,89.18
2022-12-20T04:52:59.128Z,89.08
2022-12-20T04:55:25.671Z,88.94
2022-12-20T04:57:52.296Z,89.03
2022-12-20T05:00:19.326Z,88.89
2022-12-20T05:02:45.981Z,88.99
2022-12-20T05:05:12.705Z,88.84
2022-12-20T05:07:39.246Z,88.78
2022-12-20T05:10:06.440Z,89.25
2022-12-20T05:12:33.083Z,89.11
2022-12-20T05:14:59.640Z,88.65
2022-12-20T05:17:26.193Z,89.07
2022-12-20T05:19:52.653Z,88.69
2022-12-20T05:22:38.059Z,88.14
2022-12-20T05:25:23.562Z,88.73
2022-12-20T05:27:50.360Z,88.82
2022-12-20T05:30:16.987Z,88.38
2022-12-20T05:32:43.489Z,88.36
2022-12-20T05:35:09.999Z,88.42
2022-12-20T05:37:37.064Z,88.42
2022-12-20T05:40:04.920Z,88.67
2022-12-20T05:42:31.600Z,88.73
2022-12-20T05:44:58.224Z,88.57
2022-12-20T05:47:24.998Z,88.57
2022-12-20T05:49:51.623Z,88.63
2022-12-20T05:52:18.137Z,88.29
2022-12-20T05:54:44.604Z,88.40
2022-12-20T05:57:11.853Z,88.36
2022-12-20T05:59:38.544Z,88.31
2022-12-20T06:02:05.209Z,88.61
2022-12-20T06:04:32.878Z,88.65
2022-12-20T06:07:02.284Z,88.29
2022-12-20T06:09:30.166Z,88.05
2022-12-20T06:11:56.977Z,87.88
2022-12-20T06:14:23.655Z,88.47
2022-12-20T06:16:50.242Z,88.12
2022-12-20T06:19:21.458Z,88.25
2022-12-20T06:21:48.432Z,88.20
2022-12-20T06:24:14.928Z,88.59
2022-12-20T06:26:41.707Z,88.09
2022-12-20T06:29:10.255Z,88.08
2022-12-20T06:31:36.836Z,88.15
2022-12-20T06:34:03.548Z,88.18
2022-12-20T06:36:30.058Z,87.59
2022-12-20T06:38:56.624Z,87.61
2022-12-20T06:41:23.268Z,87.20
2022-12-20T06:43:49.971Z,87.29
2022-12-20T06:46:16.828Z,87.47
2022-12-20T06:48:43.464Z,87.42
2022-12-20T06:51:11.230Z,87.24
2022-12-20T06:53:37.812Z,87.29
2022-12-20T06:56:04.623Z,86.65
2022-12-20T06:58:31.327Z,86.89
2022-12-20T07:00:57.969Z,86.68
2022-12-20T07:03:24.674Z,86.61
2022-12-20T07:05:53.426Z,86.69
2022-12-20T07:08:21.156Z,86.69
2022-12-20T07:10:48.160Z,86.60
2022-12-20T07:13:14.685Z,86.47
2022-12-20T07:15:41.378Z,86.29
2022-12-20T07:18:08.011Z,86.28
2022-12-20T07:20:34.724Z,86.20
2022-12-20T07:23:01.358Z,85.91
2022-12-20T07:25:28.604Z,85.58
2022-12-20T07:27:55.185Z,85.24
2022-12-20T07:30:21.832Z,85.18
2022-12-20T07:32:48.463Z,84.86
2022-12-20T07:35:15.535Z,84.76
2022-12-20T07:37:42.274Z,84.66
2022-12-20T07:40:10.833Z,84.76
2022-12-20T07:42:41.461Z,84.61
2022-12-20T07:45:13.095Z,84.61
2022-12-20T07:47:39.745Z,85.32
2022-12-20T07:50:07.023Z,84.07
2022-12-20T07:52:35.266Z,83.84
2022-12-20T07:55:04.201Z,83.68
2022-12-20T07:57:42.725Z,83.52
2022-12-20T08:00:11.272Z,83.25
2022-12-20T08:02:45.001Z,83.08
2022-12-20T08:05:12.587Z,82.93
2022-12-20T08:07:41.378Z,82.98
2022-12-20T08:10:10.994Z,82.73
2022-12-20T08:12:38.382Z,82.56
2022-12-20T08:15:05.378Z,82.60
2022-12-20T08:17:32.032Z,82.64
2022-12-20T08:20:00.516Z,82.00
2022-12-20T08:22:27.041Z,82.27
2022-12-20T08:24:53.643Z,81.82
2022-12-20T08:27:20.112Z,81.28
2022-12-20T08:29:46.730Z,81.09
2022-12-20T08:32:14.297Z,80.93
2022-12-20T08:34:40.896Z,80.68
2022-12-20T08:37:14.326Z,80.21
2022-12-20T08:39:41.422Z,80.29
2022-12-20T08:42:07.967Z,79.94
2022-12-20T08:44:34.469Z,79.90
2022-12-20T08:47:01.091Z,79.79
2022-12-20T08:49:27.698Z,79.79
2022-12-20T08:51:54.257Z,79.23
2022-12-20T08:54:20.846Z,79.52
2022-12-20T08:56:47.772Z,79.12
2022-12-20T08:59:14.414Z,78.68
2022-12-20T09:01:41.262Z,78.65
2022-12-20T09:04:10.797Z,78.33
2022-12-20T09:06:37.504Z,77.91
2022-12-20T09:09:05.287Z,77.50
2022-12-20T09:11:31.879Z,77.15
2022-12-20T09:13:59.547Z,76.27
2022-12-20T09:16:29.406Z,75.90
2022-12-20T09:19:04.552Z,75.11
2022-12-20T09:21:32.956Z,74.36
2022-12-20T09:23:59.526Z,74.46
2022-12-20T09:26:26.456Z,74.44
2022-12-20T09:28:54.034Z,74.16
2022-12-20T09:31:24.020Z,73.93
2022-12-20T09:33:54.697Z,73.67
2022-12-20T09:36:22.898Z,73.56
2022-12-20T09:38:49.819Z,73.45
2022-12-20T09:41:22.855Z,73.50
2022-12-20T09:43:49.977Z,73.10
2022-12-20T09:46:17.046Z,73.08
2022-12-20T09:48:45.101Z,72.50
2022-12-20T09:51:36.178Z,72.42
2022-12-20T09:54:24.504Z,72.69
2022-12-20T09:57:06.880Z,72.55
2022-12-20T09:59:45.959Z,72.28
2022-12-20T10:05:41.080Z,71.51
2022-12-20T10:08:37.294Z,71.22
2022-12-20T10:11:09.662Z,71.08
2022-12-20T10:13:46.763Z,70.96
2022-12-20T10:16:29.586Z,71.16
2022-12-20T10:19:40.296Z,71.15
2022-12-20T10:22:35.816Z,71.39
2022-12-20T10:25:16.865Z,71.56
2022-12-20T10:27:46.248Z,71.98
2022-12-20T10:30:18.498Z,71.84
2022-12-20T10:32:48.117Z,72.05
2022-12-20T10:35:14.549Z,72.20
2022-12-20T10:38:07.941Z,72.30
2022-12-20T10:41:18.624Z,72.21
2022-12-20T10:43:27.034Z,72.06
2022-12-20T10:46:06.816Z,72.05
2022-12-20T10:48:37.373Z,71.76
2022-12-20T10:51:03.885Z,71.87
2022-12-20T10:53:32.042Z,72.08
2022-12-20T10:56:10.897Z,71.94
2022-12-20T10:58:38.625Z,71.94
2022-12-20T11:01:19.250Z,71.81
2022-12-20T11:03:55.769Z,71.69
2022-12-20T11:06:25.896Z,71.57
2022-12-20T11:08:58.960Z,71.15
2022-12-20T11:11:27.565Z,71.55
2022-12-20T11:13:54.198Z,71.28
2022-12-20T11:16:36.802Z,71.76
2022-12-20T11:19:24.828Z,71.56
2022-12-20T11:22:17.796Z,71.22
2022-12-20T11:25:05.789Z,71.09
2022-12-20T11:27:44.050Z,70.80
2022-12-20T11:30:19.718Z,71.15
2022-12-20T11:33:03.039Z,71.67
2022-12-20T11:35:55.824Z,71.27
2022-12-20T11:38:42.374Z,71.60
2022-12-20T11:41:27.328Z,71.46
2022-12-20T11:44:32.188Z,71.69
2022-12-20T11:47:04.627Z,71.31
2022-12-20T11:49:43.335Z,71.62
2022-12-20T11:52:48.644Z,71.50
2022-12-20T11:55:22.290Z,71.18
2022-12-20T11:58:18.629Z,71.30
2022-12-20T12:00:52.315Z,71.33
2022-12-20T12:03:35.776Z,71.33
2022-12-20T12:06:48.834Z,71.14
2022-12-20T12:09:18.181Z,70.89
2022-12-20T12:12:09.143Z,71.06
2022-12-20T12:15:02.551Z,70.51
2022-12-20T12:17:40.171Z,70.58
2022-12-20T12:20:28.630Z,70.45
2022-12-20T12:23:01.563Z,70.00
2022-12-20T12:25:28.061Z,69.93
2022-12-20T12:27:54.799Z,69.89
2022-12-20T12:30:22.984Z,69.97
2022-12-20T12:33:02.417Z,70.22
2022-12-20T12:35:49.619Z,70.52
2022-12-20T12:39:00.049Z,70.47
2022-12-20T12:41:41.042Z,70.67
2022-12-20T12:44:35.434Z,70.68
2022-12-20T12:47:06.762Z,70.57
2022-12-20T12:49:34.131Z,71.12
2022-12-20T12:52:03.037Z,70.95
2022-12-20T12:54:31.050Z,71.15
2022-12-20T12:57:11.625Z,71.04
2022-12-20T12:59:38.606Z,71.11
2022-12-20T13:02:14.670Z,71.26
2022-12-20T13:05:00.578Z,70.95
2022-12-20T13:07:40.838Z,71.00
2022-12-20T13:10:10.329Z,71.00
2022-12-20T13:12:37.075Z,71.48
2022-12-20T13:15:22.014Z,71.74
2022-12-20T13:18:21.345Z,72.05
2022-12-20T13:21:39.364Z,71.82
2022-12-20T13:24:41.070Z,71.84
2022-12-20T13:27:40.802Z,72.22
2022-12-20T13:30:07.441Z,72.04
2022-12-20T13:32:49.094Z,72.59
2022-12-20T13:35:24.938Z,72.50
2022-12-20T13:37:56.119Z,72.38
2022-12-20T13:40:41.113Z,72.46
2022-12-20T13:43:21.926Z,72.64
2022-12-20T13:45:53.157Z,72.37
2022-12-20T13:48:26.532Z,72.56
2022-12-20T13:50:57.611Z,72.28
2022-12-20T13:53:29.844Z,72.28
2022-12-20T13:55:56.393Z,72.33
2022-12-20T13:58:26.864Z,72.85
2022-12-20T14:00:55.029Z,73.90
2022-12-20T14:03:30.763Z,73.20
2022-12-20T14:06:11.981Z,73.05
2022-12-20T14:08:43.436Z,72.61
2022-12-20T14:11:20.434Z,72.68
2022-12-20T14:14:02.195Z,72.70
2022-12-20T14:16:31.330Z,72.34
2022-12-20T14:18:57.874Z,72.87
2022-12-20T14:21:25.721Z,72.70
2022-12-20T14:23:55.503Z,72.91
2022-12-20T14:26:28.798Z,72.94
2022-12-20T14:29:02.705Z,73.13
2022-12-20T14:31:41.879Z,73.77
2022-12-20T14:34:11.426Z,73.27
2022-12-20T14:36:39.283Z,73.36
2022-12-20T14:39:29.617Z,73.07
2022-12-20T14:41:58.072Z,73.23
2022-12-20T14:44:27.311Z,73.70
2022-12-20T14:47:01.985Z,73.48
2022-12-20T14:49:34.390Z,73.78
2022-12-20T14:52:14.798Z,73.51
2022-12-20T14:55:13.203Z,73.56
2022-12-20T14:57:46.085Z,73.60
2022-12-20T15:00:17.460Z,73.94
2022-12-20T15:02:51.271Z,73.93
2022-12-20T15:05:36.463Z,73.86
2022-12-20T15:08:39.088Z,73.94
2022-12-20T15:11:08.630Z,73.90
2022-12-20T15:13:42.157Z,73.69
2022-12-20T15:16:20.285Z,73.96
2022-12-20T15:18:48.166Z,73.95
2022-12-20T15:21:24.399Z,74.35
2022-12-20T15:23:52.749Z,74.34
2022-12-20T15:26:22.310Z,74.14
2022-12-20T15:28:49.067Z,74.51
2022-12-20T15:31:18.322Z,74.21
2022-12-20T15:33:46.141Z,74.59
2022-12-20T15:36:18.467Z,74.45
2022-12-20T15:41:35.064Z,74.75
2022-12-20T15:44:06.438Z,74.89
2022-12-20T15:46:33.486Z,75.16
2022-12-20T15:49:00.159Z,74.66
2022-12-20T15:51:33.894Z,74.83
2022-12-20T15:54:02.291Z,75.13
2022-12-20T15:56:29.161Z,74.48
2022-12-20T15:58:55.901Z,74.62
2022-12-20T16:01:40.309Z,74.83
2022-12-20T16:04:08.473Z,74.86
2022-12-20T16:06:35.219Z,74.84
2022-12-20T16:09:01.685Z,74.78
2022-12-20T16:11:30.721Z,74.98
2022-12-20T16:13:59.381Z,75.43
2022-12-20T16:16:36.919Z,75.24
2022-12-20T16:19:06.551Z,75.35
2022-12-20T16:21:36.151Z,75.57
2022-12-20T16:24:03.412Z,75.45
2022-12-20T16:26:30.037Z,75.40
2022-12-20T16:28:57.111Z,75.46
2022-12-20T16:31:28.617Z,75.56
2022-12-20T16:33:56.231Z,75.67
2022-12-20T16:36:23.751Z,75.76
2022-12-20T16:38:51.029Z,75.68
2022-12-20T16:41:20.252Z,75.76
2022-12-20T16:43:49.047Z,75.50
2022-12-20T16:46:18.588Z,75.82
2022-12-20T16:48:45.369Z,75.85
2022-12-20T16:51:21.724Z,75.83
2022-12-20T16:54:18.099Z,75.71
2022-12-20T16:56:35.705Z,76.12
2022-12-20T16:59:19.224Z,76.13
2022-12-20T17:01:48.095Z,76.25
2022-12-20T17:04:17.512Z,76.65
2022-12-20T17:06:44.837Z,76.58
2022-12-20T17:11:52.192Z,76.55
2022-12-20T17:14:20.113Z,76.97
2022-12-20T17:16:46.816Z,76.68
2022-12-20T17:19:13.956Z,76.94
2022-12-20T17:24:27.573Z,76.94
2022-12-20T17:26:54.162Z,76.86
2022-12-20T17:29:20.970Z,77.00
2022-12-20T17:31:48.586Z,76.82
2022-12-20T17:34:18.892Z,77.34
2022-12-20T17:36:46.624Z,77.46
2022-12-20T17:39:13.720Z,77.38
2022-12-20T17:41:42.598Z,77.12
2022-12-20T17:44:19.504Z,77.34
2022-12-20T17:46:46.732Z,76.96
2022-12-20T17:49:13.649Z,77.25
2022-12-20T17:51:40.271Z,77.49
2022-12-20T17:54:08.934Z,77.32
2022-12-20T17:56:36.903Z,77.14
2022-12-20T17:59:07.261Z,77.41
2022-12-20T18:01:35.920Z,77.08
2022-12-20T18:04:06.780Z,77.16
2022-12-20T18:06:35.258Z,77.11
2022-12-20T18:09:01.765Z,77.34
2022-12-20T18:11:29.156Z,77.37
2022-12-20T18:13:57.822Z,77.06
2022-12-20T18:16:27.624Z,77.45
2022-12-20T18:18:55.457Z,77.26
2022-12-20T18:21:24.172Z,77.21
2022-12-20T18:23:51.628Z,77.31
2022-12-20T18:26:21.465Z,77.37
2022-12-20T18:28:49.848Z,77.27
2022-12-20T18:31:19.670Z,77.11
2022-12-20T18:33:50.097Z,77.40
2022-12-20T18:36:23.952Z,77.25
2022-12-20T18:38:51.693Z,77.33
2022-12-20T18:41:24.109Z,77.24
2022-12-20T18:43:52.219Z,77.03
2022-12-20T18:46:21.524Z,77.19
2022-12-20T18:48:50.856Z,77.50
2022-12-20T18:51:20.302Z,77.24
2022-12-20T18:53:48.515Z,77.13
2022-12-20T18:56:29.235Z,77.10
2022-12-20T18:58:56.434Z,76.86
2022-12-20T19:01:25.905Z,76.68
2022-12-20T19:03:53.227Z,77.23
2022-12-20T19:06:20.294Z,77.03
2022-12-20T19:08:47.548Z,76.80
2022-12-20T19:11:17.568Z,76.66
2022-12-20T19:13:44.923Z,76.36
2022-12-20T19:16:20.698Z,77.14
2022-12-20T19:18:48.270Z,77.37
2022-12-20T19:21:17.968Z,76.61
2022-12-20T19:23:46.841Z,76.56
2022-12-20T19:26:14.624Z,76.04
2022-12-20T19:28:42.597Z,76.10
2022-12-20T19:31:21.956Z,76.18
2022-12-20T19:33:50.012Z,75.97
2022-12-20T19:36:25.331Z,76.05
2022-12-20T19:38:58.163Z,76.23
2022-12-20T19:41:27.859Z,75.73
2022-12-20T19:43:54.555Z,76.01
2022-12-20T19:46:28.343Z,75.63
2022-12-20T19:48:57.079Z,75.91
2022-12-20T19:51:24.079Z,75.94
2022-12-20T19:53:51.881Z,75.66
2022-12-20T19:56:22.850Z,75.79
2022-12-20T19:58:49.631Z,76.23
2022-12-20T20:01:17.963Z,75.79
2022-12-20T20:03:45.579Z,75.43
2022-12-20T20:06:13.109Z,75.39
2022-12-20T20:08:40.413Z,75.14
2022-12-20T20:11:10.042Z,75.11
2022-12-20T20:13:37.853Z,75.17
2022-12-20T20:16:05.911Z,75.12
2022-12-20T20:18:37.242Z,75.25
2022-12-20T20:21:19.105Z,75.50
2022-12-20T20:23:45.728Z,75.16
2022-12-20T20:26:19.005Z,75.33
2022-12-20T20:28:45.800Z,75.22
2022-12-20T20:31:14.207Z,75.21
2022-12-20T20:33:41.674Z,75.10
2022-12-20T20:36:08.727Z,75.18
2022-12-20T20:38:35.511Z,74.76
2022-12-20T20:41:02.352Z,74.92
2022-12-20T20:43:29.979Z,74.90
2022-12-20T20:45:56.993Z,74.92
2022-12-20T20:48:23.795Z,74.79
2022-12-20T20:50:50.645Z,75.54
2022-12-20T20:53:17.365Z,75.07
2022-12-20T20:55:43.841Z,75.15
2022-12-20T20:58:10.465Z,75.30
2022-12-20T21:00:37.317Z,75.28
2022-12-20T21:03:04.470Z,74.87
2022-12-20T21:08:19.399Z,74.90
2022-12-20T21:10:46.061Z,75.04
2022-12-20T21:13:12.689Z,75.11
2022-12-20T21:15:40.941Z,75.01
2022-12-20T21:18:07.572Z,75.12
2022-12-20T21:20:34.222Z,75.27
2022-12-20T21:23:01.618Z,75.48
2022-12-20T21:25:29.885Z,75.06
2022-12-20T21:27:56.988Z,75.25
2022-12-20T21:30:24.392Z,74.90
2022-12-20T21:32:51.399Z,74.94
2022-12-20T21:35:17.905Z,75.62
2022-12-20T21:37:44.836Z,75.41
2022-12-20T21:40:11.797Z,75.19
2022-12-20T21:42:38.310Z,74.88
2022-12-20T21:45:05.341Z,75.32
2022-12-20T21:47:31.854Z,75.42
2022-12-20T21:49:58.388Z,74.93
2022-12-20T21:52:26.296Z,75.26
2022-12-20T21:54:52.844Z,75.41
2022-12-20T21:57:19.497Z,75.04
2022-12-20T21:59:46.065Z,75.30
2022-12-20T22:02:12.835Z,75.59
2022-12-20T22:04:39.589Z,75.17
2022-12-20T22:07:06.258Z,75.51
2022-12-20T22:09:32.757Z,75.48
2022-12-20T22:11:59.216Z,75.25
2022-12-20T22:14:26.027Z,75.12
2022-12-20T22:16:54.789Z,75.41
2022-12-20T22:19:21.530Z,75.43
2022-12-20T22:21:53.726Z,75.23
2022-12-20T22:24:24.132Z,75.26
2022-12-20T22:26:50.749Z,75.08
2022-12-20T22:29:17.333Z,75.24
2022-12-20T22:31:44.046Z,75.16
2022-12-20T22:34:10.790Z,75.32
2022-12-20T22:36:37.543Z,75.01
2022-12-20T22:39:04.382Z,75.02
2022-12-20T22:41:34.897Z,75.32
2022-12-20T22:44:01.866Z,75.89
2022-12-20T22:46:31.842Z,75.40
2022-12-20T22:48:59.253Z,75.64
2022-12-20T22:51:27.875Z,75.99
2022-12-20T22:53:54.599Z,75.88
2022-12-20T22:56:21.830Z,75.97
2022-12-20T22:58:49.122Z,76.14
2022-12-20T23:01:19.415Z,76.09
2022-12-20T23:03:46.549Z,76.57
2022-12-20T23:06:17.034Z,76.38
2022-12-20T23:08:43.670Z,76.85
2022-12-20T23:11:36.469Z,76.66
2022-12-20T23:14:22.922Z,76.63
2022-12-20T23:16:50.007Z,77.40
2022-12-20T23:19:16.583Z,77.58
2022-12-20T23:22:01.797Z,77.53
2022-12-20T23:24:28.469Z,77.70
2022-12-20T23:26:54.960Z,77.94
2022-12-20T23:29:22.230Z,77.59
2022-12-20T23:31:48.993Z,77.88
2022-12-20T23:34:15.591Z,78.01
2022-12-20T23:36:42.170Z,78.11
2022-12-20T23:39:09.122Z,78.59
2022-12-20T23:41:35.673Z,78.21
2022-12-20T23:44:06.158Z,78.48
2022-12-20T23:46:33.791Z,78.27
2022-12-20T23:49:00.474Z,78.79
2022-12-20T23:51:27.034Z,78.96
2022-12-20T23:53:53.599Z,79.12
2022-12-20T23:56:21.949Z,78.45
2022-12-20T23:58:53.998Z,78.40
